Time;durP1;ratioP1;P1;durP2;ratioP2;P2;SDS_P1;SDS_P2;PMS_P1;PMS_P2;Temp;Humidity;BMP_temperature;BMP_pressure;BME280_temperature;BME280_humidity;BME280_pressure;Samples;Min_cycle;Max_cycle;Signal;HPM_P1;HPM_P2
2022/03/27 00:01:18;;;;;;;12.90;8.08;;;;;;;13.35;100.00;98990.03;1783751;80;21449;-61
2022/03/27 00:03:45;;;;;;;13.20;8.00;;;;;;;13.35;100.00;98997.89;1785975;80;22264;-60
2022/03/27 00:06:12;;;;;;;13.65;8.50;;;;;;;13.03;100.00;98999.27;1780758;80;21085;-56
2022/03/27 00:08:39;;;;;;;12.33;8.10;;;;;;;13.12;100.00;98998.70;1780942;80;20990;-56
2022/03/27 00:11:26;;;;;;;12.65;8.38;;;;;;;13.00;100.00;98991.91;1781252;80;20848;-58
2022/03/27 00:14:04;;;;;;;12.20;8.25;;;;;;;13.25;100.00;98992.95;1781442;80;21247;-56
2022/03/27 00:16:31;;;;;;;11.88;7.70;;;;;;;12.93;100.00;98986.00;1780889;80;20939;-57
2022/03/27 00:18:58;;;;;;;7.25;4.22;;;;;;;13.53;100.00;99070.75;1781725;80;20955;-56
2022/03/27 00:21:27;;;;;;;6.03;3.62;;;;;;;13.14;100.00;99066.48;1780056;80;21060;-57
2022/03/27 00:23:54;;;;;;;6.42;3.37;;;;;;;12.89;90.44;99085.83;1781336;80;21647;-57
2022/03/27 00:26:21;;;;;;;5.30;3.60;;;;;;;12.80;83.55;99085.87;1782079;80;21260;-56
2022/03/27 00:28:49;;;;;;;6.85;3.12;;;;;;;12.55;81.01;99095.73;1780567;80;21545;-56
2022/03/27 00:31:17;;;;;;;4.40;2.67;;;;;;;12.43;79.76;99088.38;1780967;80;20967;-62
2022/03/27 00:33:44;;;;;;;5.72;2.52;;;;;;;12.43;77.00;99094.41;1780607;80;21102;-56
2022/03/27 00:36:13;;;;;;;4.22;2.27;;;;;;;12.23;78.60;99093.35;1781206;80;21057;-57
2022/03/27 00:38:42;;;;;;;5.45;1.87;;;;;;;12.14;79.70;99093.39;1781162;80;21160;-57
2022/03/27 00:41:09;;;;;;;4.97;2.02;;;;;;;12.20;77.65;99109.98;1780340;80;20990;-57
2022/03/27 00:43:36;;;;;;;4.53;1.70;;;;;;;12.15;76.27;99104.91;1780131;80;21093;-55
2022/03/27 00:46:04;;;;;;;4.30;1.95;;;;;;;12.07;74.68;99106.53;1781118;80;21033;-55
2022/03/27 00:48:30;;;;;;;4.40;1.87;;;;;;;11.87;75.18;99104.17;1781252;80;20975;-55
2022/03/27 00:50:57;;;;;;;4.33;1.42;;;;;;;11.69;76.72;99101.54;1780984;80;21169;-56
2022/03/27 00:53:23;;;;;;;5.47;1.55;;;;;;;11.53;76.34;99116.48;1780032;80;21480;-58
2022/03/27 00:55:51;;;;;;;4.17;1.40;;;;;;;11.37;76.29;99131.69;1768029;80;21026;-56
2022/03/27 00:58:18;;;;;;;2.90;0.82;;;;;;;11.29;76.62;99125.45;1780978;80;20970;-57
2022/03/27 01:01:17;;;;;;;3.90;1.30;;;;;;;11.24;76.85;99142.23;1780812;80;20974;-56
2022/03/27 01:03:44;;;;;;;3.33;1.20;;;;;;;11.09;78.26;99145.67;1778497;80;22369;-56
2022/03/27 01:06:31;;;;;;;3.30;0.80;;;;;;;10.92;80.42;99156.64;1774779;79;21038;-56
2022/03/27 01:11:45;;;;;;;3.42;0.85;;;;;;;10.93;80.54;99171.27;1775931;79;20971;-56
2022/03/27 01:14:12;;;;;;;3.45;1.07;;;;;;;10.88;80.16;99163.30;1775008;79;21472;-62
2022/03/27 01:16:48;;;;;;;4.37;1.05;;;;;;;10.81;80.42;99161.23;1777244;79;21143;-59
2022/03/27 01:19:15;;;;;;;5.58;2.17;;;;;;;10.54;83.26;99169.73;1779642;79;21484;-56
2022/03/27 01:21:45;;;;;;;3.20;0.90;;;;;;;10.60;86.12;99175.89;1780522;79;21397;-56
2022/03/27 01:24:14;;;;;;;2.45;0.90;;;;;;;10.71;83.92;99201.29;1779613;79;21476;-57
2022/03/27 01:26:41;;;;;;;2.67;1.00;;;;;;;10.85;82.35;99199.41;1779955;79;21069;-63
2022/03/27 01:29:08;;;;;;;3.37;1.20;;;;;;;10.76;83.52;99195.44;1779693;79;21226;-58
2022/03/27 01:31:35;;;;;;;3.50;1.00;;;;;;;10.59;85.31;99189.94;1769550;79;21009;-57
2022/03/27 01:34:03;;;;;;;2.42;0.90;;;;;;;10.67;85.35;99192.30;1772346;79;21104;-62
2022/03/27 01:36:38;;;;;;;3.00;1.00;;;;;;;10.58;85.69;99185.23;1779656;78;21144;-63
2022/03/27 01:39:07;;;;;;;3.77;1.03;;;;;;;10.53;85.68;99198.10;1778945;79;21053;-56
2022/03/27 01:41:35;;;;;;;3.77;1.62;;;;;;;10.46;85.55;99199.42;1780323;79;21141;-56
2022/03/27 01:44:02;;;;;;;4.90;1.35;;;;;;;10.48;86.28;99199.21;1778891;79;21569;-57
2022/03/27 01:46:34;;;;;;;4.17;1.57;;;;;;;10.45;85.90;99203.53;1780160;79;21032;-58
2022/03/27 01:49:02;;;;;;;3.52;1.35;;;;;;;10.39;85.10;99203.07;1779231;79;21460;-58
2022/03/27 01:51:29;;;;;;;9.43;1.67;;;;;;;10.37;84.79;99201.95;1780351;79;21026;-57
2022/03/27 01:53:56;;;;;;;3.10;1.30;;;;;;;10.21;86.11;99195.89;1779381;79;21194;-58
2022/03/27 01:56:23;;;;;;;3.95;1.10;;;;;;;10.43;83.66;99215.47;1779851;79;22119;-57
2022/03/27 01:58:50;;;;;;;3.45;0.80;;;;;;;10.55;81.44;99208.30;1779241;79;21001;-58
2022/03/27 02:01:17;;;;;;;4.37;0.90;;;;;;;10.45;80.07;99214.77;1779790;79;21088;-58
2022/03/27 02:03:44;;;;;;;3.42;0.90;;;;;;;10.42;79.47;99200.06;1784405;79;20948;-64
2022/03/27 02:06:12;;;;;;;3.27;1.17;;;;;;;10.43;78.85;99192.02;1805814;78;21733;-58
2022/03/27 02:08:39;;;;;;;3.12;1.05;;;;;;;10.41;78.66;99196.62;1794148;79;20950;-62
2022/03/27 02:11:06;;;;;;;4.45;1.45;;;;;;;10.25;81.16;99194.50;1795050;78;21347;-57
2022/03/27 02:13:33;;;;;;;3.10;1.00;;;;;;;10.25;81.51;99197.11;1794199;79;21037;-55
2022/03/27 02:15:59;;;;;;;4.75;1.25;;;;;;;10.20;82.92;99193.80;1794660;79;21058;-59
2022/03/27 02:18:27;;;;;;;2.15;0.85;;;;;;;10.29;81.59;99200.89;1794434;78;21905;-56
2022/03/27 02:20:55;;;;;;;3.62;1.02;;;;;;;10.26;81.33;99209.11;1793789;79;20954;-57
2022/03/27 02:23:23;;;;;;;2.92;0.85;;;;;;;10.23;81.93;99212.92;1794320;79;21054;-57
2022/03/27 02:25:50;;;;;;;2.50;0.85;;;;;;;9.72;88.60;99214.14;1795034;78;21017;-57
2022/03/27 02:28:17;;;;;;;2.12;0.82;;;;;;;9.68;91.11;99220.25;1794015;79;20883;-57
2022/03/27 02:30:46;;;;;;;2.80;0.98;;;;;;;9.73;91.74;99217.04;1794549;78;21864;-62
2022/03/27 02:33:13;;;;;;;2.72;1.12;;;;;;;9.63;93.47;99214.87;1794470;79;20978;-58
2022/03/27 02:35:40;;;;;;;3.42;1.12;;;;;;;9.59;95.39;99205.08;1794238;79;20976;-57
2022/03/27 02:38:07;;;;;;;2.33;1.00;;;;;;;9.66;95.48;99211.87;1793996;79;20943;-63
2022/03/27 02:40:41;;;;;;;2.80;1.25;;;;;;;11.34;77.42;99205.17;1794976;78;21141;-58
2022/03/27 02:43:09;;;;;;;6.47;1.40;;;;;;;10.72;72.50;99204.21;1795237;78;21673;-58
2022/03/27 02:45:37;;;;;;;2.45;1.05;;;;;;;9.74;87.95;99205.66;1794901;78;21002;-56
2022/03/27 02:48:05;;;;;;;5.08;1.30;;;;;;;9.54;92.49;99204.36;1794657;78;21527;-57
2022/03/27 02:50:31;;;;;;;3.42;1.30;;;;;;;9.42;96.45;99211.97;1794126;78;21089;-57
2022/03/27 02:52:59;;;;;;;4.75;1.07;;;;;;;9.35;97.23;99212.47;1795546;78;21064;-56
2022/03/27 02:55:26;;;;;;;2.58;0.68;;;;;;;9.22;98.81;99202.08;1794944;78;21135;-59
2022/03/27 02:57:53;;;;;;;2.83;0.82;;;;;;;9.27;97.51;99207.47;1791454;78;21025;-63
2022/03/27 03:00:21;;;;;;;3.80;0.95;;;;;;;9.26;98.15;99208.48;1791795;78;21351;-60
2022/03/27 03:02:48;;;;;;;2.65;0.90;;;;;;;9.39;96.47;99203.77;1798412;79;21088;-56
2022/03/27 03:05:17;;;;;;;3.98;1.30;;;;;;;9.30;96.88;99196.67;1800018;79;21521;-57
2022/03/27 03:07:45;;;;;;;3.77;0.95;;;;;;;9.23;97.34;99195.88;1782624;79;21324;-61
2022/03/27 03:10:14;;;;;;;3.05;1.10;;;;;;;9.16;98.68;99193.27;1788166;80;21100;-60
2022/03/27 03:12:42;;;;;;;4.53;1.55;;;;;;;9.24;98.57;99185.29;1789224;78;21062;-57
2022/03/27 03:15:11;;;;;;;5.28;1.07;;;;;;;9.16;98.39;99185.46;1791186;78;21107;-57
2022/03/27 03:17:38;;;;;;;2.62;0.93;;;;;;;9.03;99.33;99200.27;1788898;80;20943;-60
2022/03/27 03:20:08;;;;;;;4.12;1.00;;;;;;;9.12;100.00;99219.87;1788795;80;21409;-61
2022/03/27 03:22:37;;;;;;;2.35;0.80;;;;;;;9.07;100.00;99226.17;1789728;78;21359;-57
2022/03/27 03:25:05;;;;;;;2.95;1.00;;;;;;;8.94;100.00;99238.63;1791109;78;21132;-55
2022/03/27 03:27:33;;;;;;;3.47;1.07;;;;;;;8.86;100.00;99233.11;1788318;80;21054;-57
2022/03/27 03:30:00;;;;;;;3.58;1.02;;;;;;;8.92;100.00;99227.14;1789001;78;21121;-58
2022/03/27 03:32:28;;;;;;;3.65;0.85;;;;;;;9.03;100.00;99217.17;1789710;78;22352;-56
2022/03/27 03:34:56;;;;;;;4.03;1.12;;;;;;;8.91;100.00;99235.15;1790151;78;21023;-57
2022/03/27 03:37:23;;;;;;;5.20;0.90;;;;;;;8.84;100.00;99244.22;1790203;78;21465;-57
2022/03/27 03:39:51;;;;;;;3.35;1.00;;;;;;;8.76;100.00;99239.20;1775760;78;21287;-62
2022/03/27 03:42:18;;;;;;;3.55;0.80;;;;;;;8.84;100.00;99242.92;1791009;78;21379;-57
2022/03/27 03:44:45;;;;;;;1.90;0.60;;;;;;;8.81;100.00;99240.71;1789708;78;22181;-57
2022/03/27 03:47:11;;;;;;;3.72;0.88;;;;;;;8.87;100.00;99246.43;1789059;80;20892;-56
2022/03/27 03:49:39;;;;;;;4.00;0.75;;;;;;;8.84;100.00;99248.63;1790968;78;21066;-63
2022/03/27 03:52:07;;;;;;;2.17;0.65;;;;;;;8.70;100.00;99255.06;1787868;80;21595;-56
2022/03/27 03:54:35;;;;;;;5.20;1.35;;;;;;;8.25;100.00;99251.25;1790779;78;21089;-57
2022/03/27 03:57:06;;;;;;;5.72;0.90;;;;;;;8.36;100.00;99248.11;1790298;78;21119;-56
2022/03/27 03:59:33;;;;;;;3.25;0.55;;;;;;;8.35;100.00;99254.31;1783028;78;21078;-55
2022/03/27 04:02:00;;;;;;;2.37;0.70;;;;;;;8.50;100.00;99260.20;1788368;79;21010;-62
2022/03/27 04:04:28;;;;;;;2.98;0.70;;;;;;;8.52;100.00;99259.98;1789648;78;21029;-56
2022/03/27 04:06:54;;;;;;;3.08;0.60;;;;;;;8.55;100.00;99262.20;1789272;80;21469;-57
2022/03/27 04:09:21;;;;;;;2.55;0.78;;;;;;;8.65;100.00;99259.25;1789117;80;21306;-56
2022/03/27 04:11:48;;;;;;;2.02;0.90;;;;;;;8.57;100.00;99260.73;1788174;80;20876;-62
2022/03/27 04:14:15;;;;;;;3.92;0.72;;;;;;;8.53;100.00;99259.81;1790066;78;20967;-61
2022/03/27 04:16:43;;;;;;;2.45;0.62;;;;;;;8.48;100.00;99252.28;1790164;78;20959;-57
2022/03/27 04:19:11;;;;;;;1.92;0.50;;;;;;;8.67;100.00;99260.64;1789205;80;21042;-57
2022/03/27 04:21:39;;;;;;;4.12;0.60;;;;;;;8.75;100.00;99264.86;1788478;78;22151;-58
2022/03/27 04:24:07;;;;;;;2.35;0.65;;;;;;;9.06;100.00;99266.97;1789415;78;21390;-57
2022/03/27 04:26:34;;;;;;;2.72;0.60;;;;;;;9.08;100.00;99261.05;1788308;78;21107;-60
2022/03/27 04:29:02;;;;;;;2.87;0.50;;;;;;;9.34;100.00;99266.79;1789077;80;21113;-56
2022/03/27 04:31:30;;;;;;;2.22;0.60;;;;;;;10.02;100.00;99270.46;1789689;78;21053;-58
2022/03/27 04:33:57;;;;;;;1.70;0.60;;;;;;;10.71;100.00;99266.45;1789046;80;21236;-64
2022/03/27 04:36:24;;;;;;;2.77;0.50;;;;;;;11.74;92.07;99261.44;1788415;80;20998;-58
2022/03/27 04:38:51;;;;;;;2.02;0.50;;;;;;;12.45;78.80;99258.83;1777372;78;21018;-58
2022/03/27 04:41:18;;;;;;;1.95;0.70;;;;;;;12.34;68.33;99271.60;1789308;80;21078;-57
2022/03/27 04:43:47;;;;;;;1.90;0.65;;;;;;;11.93;65.47;99267.83;1790519;78;21081;-57
2022/03/27 04:46:16;;;;;;;2.98;0.60;;;;;;;11.55;65.66;99278.86;1788824;80;21148;-64
2022/03/27 04:48:44;;;;;;;3.33;0.57;;;;;;;10.64;71.16;99280.81;1786022;79;21113;-58
2022/03/27 04:51:11;;;;;;;2.85;0.60;;;;;;;9.84;83.89;99281.48;1781978;78;21062;-58
2022/03/27 04:53:38;;;;;;;2.95;0.90;;;;;;;9.70;87.25;99283.32;1789880;78;21480;-57
2022/03/27 04:56:05;;;;;;;2.58;0.70;;;;;;;9.39;89.90;99285.19;1789582;80;20895;-65
2022/03/27 04:58:32;;;;;;;2.70;0.72;;;;;;;9.45;92.89;99284.91;1788658;80;21143;-60
2022/03/27 05:00:59;;;;;;;5.22;0.85;;;;;;;9.64;92.38;99269.80;1789663;78;20986;-57
2022/03/27 05:03:26;;;;;;;3.02;0.75;;;;;;;9.82;92.32;99285.31;1788959;80;20979;-58
2022/03/27 05:05:54;;;;;;;2.12;0.70;;;;;;;10.67;92.44;99280.91;1790153;78;20999;-58
2022/03/27 05:08:21;;;;;;;1.85;0.60;;;;;;;11.37;85.79;99279.62;1789578;80;20892;-59
2022/03/27 05:10:49;;;;;;;3.40;1.00;;;;;;;12.24;79.53;99282.30;1790063;78;21426;-65
2022/03/27 05:13:18;;;;;;;2.85;0.80;;;;;;;13.01;65.60;99276.02;1790190;78;22293;-59
2022/03/27 05:15:45;;;;;;;3.33;0.72;;;;;;;13.35;62.66;99276.64;1777646;78;21477;-59
2022/03/27 05:18:12;;;;;;;2.70;0.60;;;;;;;13.85;57.47;99276.22;1789243;78;21669;-59
2022/03/27 05:20:41;;;;;;;2.60;0.70;;;;;;;13.95;54.97;99263.88;1777507;78;21045;-60
2022/03/27 05:23:08;;;;;;;2.93;0.80;;;;;;;13.65;53.83;99277.08;1786599;80;21377;-59
2022/03/27 05:25:45;;;;;;;2.60;0.73;;;;;;;13.51;54.24;99277.00;1790938;78;21329;-59
2022/03/27 05:28:09;;;;;;;2.50;0.70;;;;;;;13.23;55.22;99274.52;1788484;78;21079;-57
2022/03/27 05:30:37;;;;;;;2.47;0.60;;;;;;;13.03;54.86;99272.16;1788817;80;21012;-57
2022/03/27 05:33:04;;;;;;;3.20;0.70;;;;;;;12.72;56.35;99274.47;1788899;80;21261;-59
2022/03/27 05:35:32;;;;;;;3.03;0.63;;;;;;;12.70;57.74;99279.14;1789937;78;21262;-57
2022/03/27 05:37:59;;;;;;;2.97;0.67;;;;;;;12.50;56.48;99284.61;1789611;80;21641;-57
2022/03/27 05:40:25;;;;;;;2.73;0.90;;;;;;;12.43;55.79;99289.63;1790519;78;21787;-58
2022/03/27 05:42:53;;;;;;;3.70;0.90;;;;;;;12.38;54.82;99298.89;1789063;80;21385;-56
2022/03/27 05:45:20;;;;;;;3.47;1.00;;;;;;;12.30;53.82;99292.66;1788693;80;21214;-56
2022/03/27 05:47:47;;;;;;;4.08;0.90;;;;;;;12.23;52.55;99307.59;1790895;78;22750;-57
2022/03/27 05:50:18;;;;;;;2.80;0.70;;;;;;;12.12;51.32;99308.31;1789207;80;20899;-58
2022/03/27 05:52:45;;;;;;;2.42;0.50;;;;;;;11.90;52.19;99302.20;1789216;79;21744;-58
2022/03/27 05:55:12;;;;;;;3.58;0.70;;;;;;;12.04;53.09;99298.15;1790265;78;21014;-58
2022/03/27 05:57:40;;;;;;;3.00;1.00;;;;;;;12.25;53.48;99301.66;1790675;78;21074;-57
2022/03/27 06:00:12;;;;;;;3.25;1.22;;;;;;;12.56;53.09;99305.14;1790192;78;21218;-57
2022/03/27 06:02:37;;;;;;;2.52;0.80;;;;;;;12.78;53.19;99298.95;1793785;78;20999;-57
2022/03/27 06:05:06;;;;;;;2.47;0.72;;;;;;;12.86;49.82;99297.33;1797562;78;22264;-64
2022/03/27 06:07:47;;;;;;;1.90;0.53;;;;;;;12.85;47.53;99314.84;1789977;78;21918;-57
2022/03/27 06:10:18;;;;;;;2.63;0.53;;;;;;;12.59;46.41;99313.34;1794563;77;21167;-60
2022/03/27 06:12:45;;;;;;;3.15;0.65;;;;;;;12.27;46.09;99311.38;1806010;77;22310;-59
2022/03/27 06:15:12;;;;;;;4.15;0.95;;;;;;;12.21;46.48;99321.91;1805666;77;21512;-58
2022/03/27 06:17:42;;;;;;;1.80;0.47;;;;;;;12.13;45.90;99313.34;1805799;77;21147;-58
2022/03/27 06:20:12;;;;;;;2.47;0.70;;;;;;;11.96;45.87;99329.77;1805051;77;21795;-58
2022/03/27 06:22:40;;;;;;;1.60;0.50;;;;;;;12.02;46.21;99339.38;1805630;77;21825;-57
2022/03/27 06:25:09;;;;;;;3.83;0.80;;;;;;;12.16;46.01;99338.24;1800304;77;21279;-63
2022/03/27 06:27:36;;;;;;;3.27;0.57;;;;;;;12.29;45.35;99347.25;1805483;77;21152;-56
2022/03/27 06:30:06;;;;;;;3.17;0.70;;;;;;;12.22;44.05;99343.89;1805476;77;22601;-57
2022/03/27 06:32:33;;;;;;;3.15;0.50;;;;;;;11.96;44.61;99338.91;1804779;77;21037;-56
2022/03/27 06:35:00;;;;;;;2.75;0.70;;;;;;;11.97;44.84;99350.95;1805561;77;20983;-57
2022/03/27 06:37:27;;;;;;;2.75;0.50;;;;;;;11.69;44.96;99345.11;1805058;77;21112;-56
2022/03/27 06:39:54;;;;;;;2.05;0.60;;;;;;;11.63;44.36;99346.45;1805135;77;21065;-56
2022/03/27 06:42:22;;;;;;;2.72;0.57;;;;;;;11.37;44.09;99348.25;1804700;77;20994;-57
2022/03/27 06:44:49;;;;;;;2.10;0.53;;;;;;;11.23;44.23;99358.97;1804570;77;21831;-58
2022/03/27 06:47:15;;;;;;;1.92;0.78;;;;;;;11.11;44.65;99367.45;1805204;77;20974;-56
2022/03/27 06:49:43;;;;;;;3.00;0.90;;;;;;;11.11;45.16;99354.41;1804523;77;21234;-58
2022/03/27 06:52:11;;;;;;;3.80;0.93;;;;;;;11.18;45.22;99356.48;1805486;77;21091;-64
2022/03/27 06:54:38;;;;;;;3.83;0.88;;;;;;;11.27;44.89;99366.16;1805784;77;20967;-56
2022/03/27 06:57:04;;;;;;;2.95;0.70;;;;;;;11.32;44.82;99361.62;1805044;77;21477;-56
2022/03/27 07:05:02;;;;;;;2.72;0.65;;;;;;;10.99;45.80;99368.33;1768286;80;20982;-65
2022/03/27 07:07:30;;;;;;;4.67;1.50;;;;;;;10.94;45.53;99365.02;1771546;80;20950;-56
2022/03/27 07:09:57;;;;;;;4.85;1.65;;;;;;;10.90;45.22;99378.17;1774961;80;21019;-57
2022/03/27 07:12:25;;;;;;;5.62;1.60;;;;;;;10.57;45.56;99379.09;1775493;80;21046;-59
2022/03/27 07:14:52;;;;;;;6.65;1.77;;;;;;;10.49;45.59;99381.88;1769713;79;21104;-60
2022/03/27 07:17:19;;;;;;;3.15;1.27;;;;;;;10.40;45.50;99372.19;1774883;80;21001;-57
2022/03/27 07:19:46;;;;;;;5.50;1.62;;;;;;;10.27;45.26;99375.34;1775345;80;21050;-58
2022/03/27 07:22:12;;;;;;;1.40;0.57;;;;;;;10.26;45.35;99377.11;1774924;80;21536;-56
2022/03/27 07:24:39;;;;;;;4.05;0.90;;;;;;;10.43;44.88;99382.72;1774358;79;21097;-57
2022/03/27 07:27:07;;;;;;;2.20;0.62;;;;;;;10.38;45.05;99370.78;1774900;80;21260;-61
2022/03/27 07:29:36;;;;;;;2.98;0.60;;;;;;;10.47;45.36;99387.82;1775227;80;21531;-57
2022/03/27 07:32:03;;;;;;;3.00;0.70;;;;;;;10.72;45.40;99372.33;1774775;80;20969;-62
2022/03/27 07:34:33;;;;;;;3.77;0.60;;;;;;;11.03;45.12;99387.77;1775095;80;21042;-60
2022/03/27 07:37:03;;;;;;;3.70;0.50;;;;;;;11.22;44.58;99384.27;1775026;80;20938;-61
2022/03/27 07:39:30;;;;;;;3.77;1.00;;;;;;;11.60;43.95;99379.53;1774803;80;21140;-56
2022/03/27 07:41:58;;;;;;;2.58;0.70;;;;;;;12.10;42.24;99383.50;1770679;79;20977;-58
2022/03/27 07:44:25;;;;;;;3.87;1.17;;;;;;;12.49;40.55;99381.02;1779391;79;21070;-56
2022/03/27 07:46:56;;;;;;;1.55;0.50;;;;;;;12.48;40.20;99378.12;1776120;80;21096;-57
2022/03/27 07:49:23;;;;;;;1.87;0.60;;;;;;;12.69;39.18;99372.98;1775155;79;21488;-66
2022/03/27 07:51:49;;;;;;;1.60;0.60;;;;;;;12.80;38.15;99368.30;1765378;79;21703;-63
2022/03/27 07:54:16;;;;;;;3.53;1.13;;;;;;;12.83;37.52;99371.80;1775136;79;21750;-58
2022/03/27 07:56:44;;;;;;;2.10;0.80;;;;;;;12.96;36.88;99368.75;1771073;79;21294;-57
2022/03/27 07:59:11;;;;;;;0.80;0.30;;;;;;;12.88;35.67;99370.65;1768783;79;21197;-58
2022/03/27 08:01:38;;;;;;;1.47;0.40;;;;;;;12.51;35.31;99380.81;1774948;79;21249;-56
2022/03/27 08:04:05;;;;;;;1.72;0.30;;;;;;;12.23;36.56;99375.53;1784779;78;22012;-59
2022/03/27 08:06:36;;;;;;;1.53;0.40;;;;;;;11.82;39.39;99382.09;1774966;78;21002;-56
2022/03/27 08:09:05;;;;;;;1.60;0.53;;;;;;;11.50;40.09;99394.84;1787055;80;21515;-59
2022/03/27 08:11:35;;;;;;;3.25;0.93;;;;;;;11.10;39.68;99385.90;1786399;80;21465;-58
2022/03/27 08:14:02;;;;;;;3.55;0.90;;;;;;;10.96;40.63;99374.74;1786414;80;20954;-58
2022/03/27 08:16:30;;;;;;;3.50;0.80;;;;;;;10.98;41.18;99392.78;1786853;80;21001;-58
2022/03/27 08:18:56;;;;;;;1.87;0.70;;;;;;;11.31;41.42;99397.86;1786780;80;20946;-58
2022/03/27 08:21:25;;;;;;;3.67;0.90;;;;;;;11.64;41.23;99408.12;1786467;80;20942;-57
2022/03/27 08:23:51;;;;;;;1.95;0.60;;;;;;;11.48;39.71;99437.30;1774071;80;21113;-56
2022/03/27 08:29:04;;;;;;;1.35;0.50;;;;;;;10.34;39.98;99431.63;1786193;80;21175;-56
2022/03/27 08:31:32;;;;;;;1.02;0.40;;;;;;;10.27;39.58;99433.44;1786680;80;20982;-62
2022/03/27 08:33:59;;;;;;;1.82;0.35;;;;;;;10.30;37.29;99430.91;1786331;80;21025;-58
2022/03/27 08:36:27;;;;;;;1.45;0.30;;;;;;;10.33;36.29;99433.91;1780311;78;22439;-59
2022/03/27 08:38:55;;;;;;;2.25;0.80;;;;;;;10.42;35.45;99440.54;1768030;78;21056;-62
2022/03/27 08:41:22;;;;;;;2.65;0.62;;;;;;;10.69;34.93;99412.63;1760041;79;22492;-58
2022/03/27 08:43:58;;;;;;;3.52;0.70;;;;;;;10.66;35.25;99429.97;1761718;78;21042;-64
2022/03/27 08:46:18;;;;;;;2.37;0.85;;;;;;;10.87;34.86;99438.06;1729361;79;21063;-58
2022/03/27 08:48:45;;;;;;;1.82;0.60;;;;;;;11.08;34.67;99433.58;1762769;78;21320;-61
2022/03/27 08:51:50;;;;;;;1.60;0.70;;;;;;;11.25;35.09;99455.59;1702176;79;21203;-57
2022/03/27 08:54:19;;;;;;;1.27;0.47;;;;;;;11.40;34.12;99444.86;1785614;79;21999;-58
2022/03/27 08:57:03;;;;;;;3.25;0.60;;;;;;;11.40;34.77;99457.91;1760801;80;20974;-58
2022/03/27 08:59:30;;;;;;;1.25;0.45;;;;;;;11.20;34.35;99461.41;1796174;78;21094;-58
2022/03/27 09:01:59;;;;;;;1.75;0.53;;;;;;;10.41;34.89;99469.38;1772645;80;20955;-61
2022/03/27 09:04:26;;;;;;;1.70;0.50;;;;;;;10.28;35.27;99470.70;1775707;80;21543;-58
2022/03/27 09:06:52;;;;;;;0.85;0.30;;;;;;;10.19;35.53;99468.73;1779703;80;21254;-58
2022/03/27 09:09:21;;;;;;;1.57;0.50;;;;;;;10.27;35.03;99481.63;1779641;80;20959;-56
2022/03/27 09:11:50;;;;;;;0.70;0.30;;;;;;;10.06;35.24;99488.27;1779599;80;20888;-55
2022/03/27 09:14:18;;;;;;;1.15;0.40;;;;;;;9.93;34.92;99488.56;1779357;80;21567;-57
2022/03/27 09:17:05;;;;;;;1.55;0.57;;;;;;;9.63;35.00;99492.48;1782006;78;21054;-56
2022/03/27 09:19:39;;;;;;;1.12;0.30;;;;;;;9.48;34.56;99494.73;1790699;77;22355;-58
2022/03/27 09:22:31;;;;;;;1.65;0.37;;;;;;;9.28;35.34;99500.36;1779675;80;21385;-57
2022/03/27 09:25:01;;;;;;;1.05;0.30;;;;;;;9.21;36.04;99498.22;1774177;78;21804;-57
2022/03/27 09:27:33;;;;;;;0.95;0.42;;;;;;;9.17;35.89;99494.40;1798283;78;21021;-56
2022/03/27 09:30:10;;;;;;;1.40;0.30;;;;;;;9.23;35.55;99507.91;1804986;79;21543;-56
2022/03/27 09:32:42;;;;;;;1.42;0.50;;;;;;;8.98;35.70;99520.59;1805766;77;21102;-57
2022/03/27 09:35:16;;;;;;;1.35;0.50;;;;;;;9.27;35.32;99513.03;1805499;78;21029;-57
2022/03/27 09:37:49;;;;;;;1.30;0.53;;;;;;;9.62;35.13;99524.69;1801503;77;21023;-57
2022/03/27 09:40:16;;;;;;;1.27;0.40;;;;;;;9.47;35.51;99515.72;1787104;78;27555;-58
2022/03/27 09:42:43;;;;;;;1.40;0.47;;;;;;;9.06;36.60;99529.53;1781538;78;21529;-64
2022/03/27 09:45:23;;;;;;;2.20;0.78;;;;;;;8.97;37.50;99533.26;1778904;78;21191;-58
2022/03/27 09:47:52;;;;;;;4.45;1.65;;;;;;;8.98;38.12;99533.58;1779746;78;21015;-59
2022/03/27 09:50:37;;;;;;;4.15;2.00;;;;;;;9.30;38.30;99538.66;1778320;78;21481;-60
2022/03/27 09:53:28;;;;;;;0.72;0.30;;;;;;;9.62;38.24;99539.00;1779276;78;20955;-59
2022/03/27 09:56:04;;;;;;;1.00;0.42;;;;;;;9.81;37.95;99540.90;1780923;78;20943;-65
2022/03/27 09:58:41;;;;;;;1.55;0.50;;;;;;;9.82;38.22;99535.98;1780743;78;21257;-58
2022/03/27 10:01:17;;;;;;;2.70;1.00;;;;;;;9.69;38.92;99542.44;1779374;78;20995;-62
2022/03/27 10:04:14;;;;;;;1.22;0.40;;;;;;;9.61;39.34;99545.20;1780477;78;21057;-57
2022/03/27 10:06:40;;;;;;;1.80;0.57;;;;;;;9.55;41.15;99561.61;1792288;78;21349;-61
2022/03/27 10:09:13;;;;;;;0.98;0.40;;;;;;;9.27;44.49;99596.25;1798072;78;20998;-59
2022/03/27 10:11:43;;;;;;;0.93;0.40;;;;;;;8.94;47.40;99592.95;1797501;78;20948;-58
2022/03/27 10:14:10;;;;;;;1.65;0.60;;;;;;;8.86;49.00;99605.25;1797878;78;21678;-55
2022/03/27 10:16:46;;;;;;;1.35;0.55;;;;;;;8.56;50.21;99593.73;1797291;78;20920;-56
2022/03/27 10:19:25;;;;;;;1.42;0.50;;;;;;;8.55;50.84;99589.50;1789533;78;22347;-55
2022/03/27 10:21:52;;;;;;;1.10;0.40;;;;;;;8.46;51.35;99600.52;1791479;78;20988;-56
2022/03/27 10:24:19;;;;;;;0.98;0.40;;;;;;;8.46;51.55;99594.52;1797107;78;21229;-61
2022/03/27 10:26:46;;;;;;;2.15;1.10;;;;;;;8.75;51.49;99609.16;1796394;78;20971;-55
2022/03/27 10:29:14;;;;;;;1.95;0.53;;;;;;;8.94;50.85;99606.41;1796895;78;21307;-54
2022/03/27 10:31:41;;;;;;;1.67;0.42;;;;;;;8.96;52.12;99616.94;1796805;78;21003;-56
2022/03/27 10:34:11;;;;;;;1.27;0.50;;;;;;;8.99;53.33;99612.67;1796631;79;21521;-60
2022/03/27 10:36:55;;;;;;;1.25;0.45;;;;;;;9.00;53.29;99613.47;1796790;78;22139;-59
2022/03/27 10:39:34;;;;;;;1.35;0.55;;;;;;;9.07;52.26;99617.42;1798025;78;21039;-56
2022/03/27 10:42:21;;;;;;;1.90;0.55;;;;;;;9.10;52.32;99624.36;1796865;78;21109;-56
2022/03/27 10:44:54;;;;;;;2.92;0.40;;;;;;;9.35;51.25;99620.81;1797293;78;21510;-57
2022/03/27 10:47:23;;;;;;;0.72;0.30;;;;;;;9.28;50.59;99619.98;1796626;79;20969;-60
2022/03/27 10:50:09;;;;;;;2.25;0.50;;;;;;;9.55;50.30;99633.16;1784973;78;22194;-57
2022/03/27 10:52:54;;;;;;;1.10;0.40;;;;;;;9.45;49.57;99630.39;1796594;78;21911;-55
2022/03/27 10:55:21;;;;;;;1.17;0.50;;;;;;;9.72;47.93;99619.63;1796824;79;21031;-56
2022/03/27 10:57:49;;;;;;;1.62;0.70;;;;;;;9.70;46.58;99635.14;1796438;79;20980;-63
2022/03/27 11:00:43;;;;;;;2.02;0.57;;;;;;;9.64;46.48;99648.41;1797573;78;20979;-56
2022/03/27 11:03:07;;;;;;;1.07;0.40;;;;;;;9.63;44.21;99653.81;1788662;79;21801;-57
2022/03/27 11:05:41;;;;;;;1.20;0.42;;;;;;;9.33;40.69;99654.52;1797639;78;21464;-62
2022/03/27 11:08:25;;;;;;;2.12;0.70;;;;;;;9.18;39.93;99666.31;1799133;78;22202;-58
2022/03/27 11:10:58;;;;;;;3.95;0.85;;;;;;;8.93;40.22;99664.09;1796710;79;20916;-57
2022/03/27 11:13:32;;;;;;;2.17;0.70;;;;;;;8.95;40.32;99671.22;1797316;78;21027;-57
2022/03/27 11:16:08;;;;;;;3.47;0.98;;;;;;;8.88;39.91;99674.25;1799075;78;21946;-56
2022/03/27 11:18:40;;;;;;;3.65;1.40;;;;;;;8.63;39.89;99673.00;1797344;78;21622;-57
2022/03/27 11:21:10;;;;;;;2.62;1.15;;;;;;;8.83;39.60;99669.32;1797075;78;21450;-56
2022/03/27 11:23:40;;;;;;;2.98;1.15;;;;;;;8.80;39.65;99663.98;1801345;79;20983;-57
2022/03/27 11:26:29;;;;;;;3.17;1.47;;;;;;;8.84;39.67;99674.81;1797178;79;21036;-63
2022/03/27 11:29:05;;;;;;;3.52;1.00;;;;;;;8.84;39.07;99697.70;1797046;79;21270;-58
2022/03/27 11:31:34;;;;;;;3.35;1.10;;;;;;;8.84;39.11;99688.61;1795595;79;21048;-55
2022/03/27 11:34:18;;;;;;;2.22;0.90;;;;;;;8.82;39.39;99684.08;1796672;79;21019;-58
2022/03/27 11:36:44;;;;;;;;;;;;;;;8.80;39.18;99684.78;1799372;78;21082;-58
2022/03/27 11:39:19;;;;;;;4.58;1.70;;;;;;;8.94;39.22;99685.22;1784443;79;20213;-56
2022/03/27 11:41:47;;;;;;;3.83;1.75;;;;;;;8.82;39.31;99696.28;1791355;78;21210;-62
2022/03/27 11:47:22;;;;;;;4.47;1.95;;;;;;;9.22;39.29;99697.45;1798601;78;20932;-61
2022/03/27 11:49:50;;;;;;;2.47;0.93;;;;;;;9.29;37.67;99715.22;1785380;78;21042;-57
2022/03/27 11:52:22;;;;;;;3.70;1.60;;;;;;;9.16;36.42;99710.69;1799177;78;21553;-57
2022/03/27 11:54:50;;;;;;;3.00;1.00;;;;;;;9.19;36.22;99699.92;1796652;79;21219;-58
2022/03/27 11:57:16;;;;;;;5.62;2.15;;;;;;;9.21;35.74;99710.15;1803168;79;20876;-58
2022/03/27 11:59:52;;;;;;;3.20;1.15;;;;;;;9.34;35.29;99715.45;1797399;78;21060;-56
2022/03/27 12:02:20;;;;;;;1.98;0.88;;;;;;;9.42;35.15;99708.80;1798218;78;20943;-59